Terminal Aerodrome Forecast
Issued by NWS

Home | Current Version | Previous Version | Graphics & Text | Print | Product List | Glossary On
Versions: 1 2 3 4 5 6 7 8 9 10 11 12 13 14 15 16 17 18 19 20 21 22
000
FTUS43 KDVN 230700 AAA
TAFBRL
TAF AMD
KBRL 230747Z 2308/2406 VRB03KT 3SM BR SCT080
      TEMPO 2308/2312 1SM BR SCT030
     FM231300 10005KT 5SM BR VCTS BKN040CB
     FM231600 10007KT P6SM BKN050=

USA.gov is the U.S. government's official web portal to all federal, state and local government web resources and services.